createdAt,value
2018-02-07T00:01:28.653Z,87.04
2018-02-07T00:02:28.557Z,86.66
2018-02-07T00:03:28.534Z,86.19
2018-02-07T00:04:28.543Z,86.19
2018-02-07T00:05:28.550Z,86.10
2018-02-07T00:06:29.017Z,86.10
2018-02-07T00:07:29.276Z,86.10
2018-02-07T00:10:28.921Z,86.10
2018-02-07T00:13:28.637Z,86.19
2018-02-07T00:14:28.632Z,86.19
2018-02-07T00:15:28.648Z,86.00
2018-02-07T00:16:28.651Z,86.47
2018-02-07T00:17:28.661Z,86.66
2018-02-07T00:18:28.681Z,86.85
2018-02-07T00:19:29.116Z,86.85
2018-02-07T00:20:28.692Z,87.04
2018-02-07T00:21:28.728Z,86.66
2018-02-07T00:23:28.927Z,86.29
2018-02-07T00:27:28.783Z,86.00
2018-02-07T00:28:28.761Z,86.19
2018-02-07T00:29:28.771Z,86.00
2018-02-07T00:30:29.002Z,86.57
2018-02-07T00:31:28.841Z,86.29
2018-02-07T00:32:28.900Z,86.10
2018-02-07T00:33:28.807Z,86.00
2018-02-07T00:34:28.829Z,86.19
2018-02-07T00:35:28.989Z,86.29
2018-02-07T00:37:28.848Z,87.13
2018-02-07T00:38:28.859Z,87.23
2018-02-07T00:39:28.919Z,87.23
2018-02-07T00:40:29.205Z,86.94
2018-02-07T00:41:29.419Z,87.32
2018-02-07T00:42:29.308Z,87.42
2018-02-07T00:43:29.297Z,86.66
2018-02-07T00:45:29.185Z,87.13
2018-02-07T00:46:28.990Z,87.32
2018-02-07T00:48:29.112Z,87.13
2018-02-07T00:49:28.979Z,87.42
2018-02-07T00:51:29.193Z,86.47
2018-02-07T00:52:28.980Z,87.04
2018-02-07T00:53:29.673Z,87.23
2018-02-07T00:54:29.138Z,87.04
2018-02-07T00:56:30.031Z,87.23
2018-02-07T00:57:29.058Z,87.32
2018-02-07T00:58:29.054Z,87.32
2018-02-07T00:59:29.045Z,87.13
2018-02-07T01:00:29.054Z,87.04
2018-02-07T01:01:29.066Z,87.13
2018-02-07T01:02:29.072Z,87.23
2018-02-07T01:04:29.557Z,87.61
2018-02-07T01:05:29.100Z,87.23
2018-02-07T01:06:29.311Z,86.94
2018-02-07T01:07:29.122Z,87.04
2018-02-07T01:08:29.138Z,86.85
2018-02-07T01:09:29.274Z,87.23
2018-02-07T01:10:29.535Z,87.23
2018-02-07T01:11:29.172Z,87.23
2018-02-07T01:12:29.166Z,87.13
2018-02-07T01:14:29.201Z,87.42
2018-02-07T01:15:29.311Z,86.94
2018-02-07T01:16:29.202Z,86.85
2018-02-07T01:18:29.357Z,86.38
2018-02-07T01:19:29.687Z,86.19
2018-02-07T01:20:29.236Z,86.38
2018-02-07T01:22:29.280Z,87.32
2018-02-07T01:23:29.263Z,87.32
2018-02-07T01:27:29.939Z,87.42
2018-02-07T01:29:29.348Z,87.23
2018-02-07T01:30:29.327Z,86.94
2018-02-07T01:31:30.327Z,87.23
2018-02-07T01:32:29.363Z,87.23
2018-02-07T01:33:29.437Z,87.51
2018-02-07T01:34:29.363Z,87.32
2018-02-07T01:35:29.383Z,87.32
2018-02-07T01:36:30.015Z,87.42
2018-02-07T01:37:29.484Z,87.79
2018-02-07T01:38:29.417Z,87.79
2018-02-07T01:39:29.756Z,87.79
2018-02-07T01:40:29.478Z,87.23
2018-02-07T01:41:29.426Z,87.70
2018-02-07T01:42:29.898Z,87.70
2018-02-07T01:43:30.022Z,87.61
2018-02-07T01:45:29.465Z,87.51
2018-02-07T01:46:29.480Z,87.32
2018-02-07T01:47:29.480Z,87.04
2018-02-07T01:48:29.490Z,87.42
2018-02-07T01:49:29.502Z,87.42
2018-02-07T01:50:29.733Z,87.61
2018-02-07T01:51:29.516Z,87.61
2018-02-07T01:52:29.915Z,87.98
2018-02-07T01:53:29.730Z,87.13
2018-02-07T01:54:29.547Z,87.32
2018-02-07T01:55:30.519Z,87.70
2018-02-07T01:56:30.431Z,87.51
2018-02-07T01:59:29.637Z,87.61
2018-02-07T02:00:29.609Z,87.79
2018-02-07T02:01:29.979Z,88.17
2018-02-07T02:02:29.676Z,87.42
2018-02-07T02:03:31.263Z,87.89
2018-02-07T02:04:29.996Z,87.51
2018-02-07T02:05:30.690Z,87.79
2018-02-07T02:06:30.165Z,87.79
2018-02-07T02:07:30.262Z,87.42
2018-02-07T02:09:29.880Z,87.42
2018-02-07T02:10:29.938Z,87.04
2018-02-07T02:11:29.963Z,87.23
2018-02-07T02:12:29.705Z,87.70
2018-02-07T02:13:30.817Z,88.17
2018-02-07T02:14:29.732Z,87.61
2018-02-07T02:16:31.396Z,87.23
2018-02-07T02:17:30.363Z,87.13
2018-02-07T02:21:30.168Z,87.89
2018-02-07T02:22:29.867Z,87.98
2018-02-07T02:24:29.815Z,88.08
2018-02-07T02:25:29.884Z,87.89
2018-02-07T02:26:30.012Z,87.98
2018-02-07T02:27:30.170Z,87.70
2018-02-07T02:30:30.702Z,87.61
2018-02-07T02:31:29.877Z,87.70
2018-02-07T02:32:29.887Z,87.42
2018-02-07T02:34:30.309Z,87.32
2018-02-07T02:35:30.462Z,87.32
2018-02-07T02:36:29.922Z,87.42
2018-02-07T02:37:29.931Z,87.70
2018-02-07T02:38:29.948Z,87.79
2018-02-07T02:39:30.003Z,87.13
2018-02-07T02:40:29.961Z,87.61
2018-02-07T02:41:31.632Z,87.79
2018-02-07T02:42:30.358Z,87.70
2018-02-07T02:44:29.997Z,88.17
2018-02-07T02:45:30.000Z,88.17
2018-02-07T02:46:30.013Z,88.08
2018-02-07T02:47:30.104Z,88.17
2018-02-07T02:48:30.027Z,88.08
2018-02-07T02:49:30.039Z,87.79
2018-02-07T02:50:30.168Z,88.08
2018-02-07T02:51:30.947Z,88.27
2018-02-07T02:52:30.805Z,88.08
2018-02-07T02:53:30.078Z,87.89
2018-02-07T02:54:30.177Z,88.46
2018-02-07T02:55:30.093Z,88.27
2018-02-07T02:56:30.120Z,88.46
2018-02-07T02:57:30.233Z,88.17
2018-02-07T02:59:30.756Z,88.65
2018-02-07T03:00:31.004Z,87.61
2018-02-07T03:01:31.365Z,87.70
2018-02-07T03:02:30.260Z,87.61
2018-02-07T03:03:30.426Z,87.79
2018-02-07T03:04:32.173Z,88.17
2018-02-07T03:05:30.305Z,88.36
2018-02-07T03:07:30.589Z,87.70
2018-02-07T03:08:30.329Z,87.79
2018-02-07T03:09:30.450Z,87.98
2018-02-07T03:10:30.225Z,88.08
2018-02-07T03:13:30.406Z,88.17
2018-02-07T03:14:30.966Z,87.98
2018-02-07T03:15:30.441Z,88.08
2018-02-07T03:16:31.283Z,88.17
2018-02-07T03:17:30.724Z,87.98
2018-02-07T03:18:30.827Z,87.98
2018-02-07T03:19:30.306Z,87.70
2018-02-07T03:20:30.952Z,87.61
2018-02-07T03:22:30.419Z,87.61
2018-02-07T03:23:30.419Z,87.70
2018-02-07T03:25:30.367Z,87.79
2018-02-07T03:26:30.498Z,87.79
2018-02-07T03:27:30.378Z,88.36
2018-02-07T03:28:30.519Z,88.17
2018-02-07T03:29:30.620Z,87.98
2018-02-07T03:31:30.942Z,88.46
2018-02-07T03:32:30.486Z,88.27
2018-02-07T03:33:30.430Z,88.36
2018-02-07T03:34:30.445Z,88.55
2018-02-07T03:35:30.460Z,88.08
2018-02-07T03:36:30.457Z,88.23
2018-02-07T03:37:30.474Z,87.94
2018-02-07T03:39:30.987Z,88.60
2018-02-07T03:40:31.055Z,88.70
2018-02-07T03:43:30.574Z,89.17
2018-02-07T03:44:30.530Z,88.89
2018-02-07T03:45:30.538Z,88.79
2018-02-07T03:48:31.119Z,88.23
2018-02-07T03:49:30.924Z,88.42
2018-02-07T03:50:30.606Z,88.23
2018-02-07T03:51:31.026Z,88.89
2018-02-07T03:52:30.659Z,88.70
2018-02-07T03:54:30.882Z,88.13
2018-02-07T03:55:30.682Z,88.70
2018-02-07T03:56:30.786Z,89.07
2018-02-07T03:57:30.647Z,88.13
2018-02-07T03:58:30.757Z,88.70
2018-02-07T03:59:30.797Z,89.07
2018-02-07T04:05:30.996Z,88.42
2018-02-07T04:06:30.725Z,88.60
2018-02-07T04:08:30.746Z,88.42
2018-02-07T04:09:30.752Z,87.94
2018-02-07T04:10:31.220Z,87.94
2018-02-07T04:11:31.179Z,88.42
2018-02-07T04:12:31.047Z,87.94
2018-02-07T04:13:30.790Z,88.42
2018-02-07T04:14:30.809Z,88.51
2018-02-07T04:16:30.868Z,88.98
2018-02-07T04:17:31.320Z,88.32
2018-02-07T04:18:31.590Z,88.42
2018-02-07T04:19:31.095Z,88.13
2018-02-07T04:21:30.865Z,89.17
2018-02-07T04:22:30.869Z,89.45
2018-02-07T04:23:30.878Z,88.89
2018-02-07T04:24:30.934Z,88.23
2018-02-07T04:28:30.962Z,88.04
2018-02-07T04:29:31.186Z,87.66
2018-02-07T04:30:31.822Z,88.13
2018-02-07T04:31:30.946Z,87.94
2018-02-07T04:32:30.955Z,88.13
2018-02-07T04:33:31.013Z,88.13
2018-02-07T04:34:30.986Z,87.94
2018-02-07T04:35:31.425Z,88.04
2018-02-07T04:36:31.853Z,88.32
2018-02-07T04:37:31.615Z,88.42
2018-02-07T04:38:31.044Z,88.23
2018-02-07T04:40:31.377Z,88.42
2018-02-07T04:41:31.839Z,88.42
2018-02-07T04:42:31.110Z,88.32
2018-02-07T04:43:31.051Z,88.70
2018-02-07T04:44:31.082Z,88.42
2018-02-07T04:45:31.066Z,87.94
2018-02-07T04:46:31.333Z,88.04
2018-02-07T04:47:31.084Z,87.94
2018-02-07T04:51:31.221Z,88.23
2018-02-07T04:52:31.592Z,88.51
2018-02-07T04:53:31.245Z,88.23
2018-02-07T04:55:31.233Z,88.51
2018-02-07T04:56:31.175Z,88.23
2018-02-07T04:57:31.335Z,88.23
2018-02-07T04:58:31.553Z,88.51
2018-02-07T04:59:31.573Z,88.32
2018-02-07T05:00:31.299Z,88.42
2018-02-07T05:02:31.891Z,87.94
2018-02-07T05:03:31.680Z,87.75
2018-02-07T05:04:31.775Z,87.94
2018-02-07T05:05:31.278Z,88.70
2018-02-07T05:06:31.477Z,88.79
2018-02-07T05:07:31.282Z,88.42
2018-02-07T05:08:31.501Z,88.51
2018-02-07T05:10:31.642Z,87.66
2018-02-07T05:12:31.298Z,88.13
2018-02-07T05:13:32.527Z,87.66
2018-02-07T05:14:31.550Z,87.85
2018-02-07T05:16:31.354Z,87.85
2018-02-07T05:18:31.400Z,87.94
2018-02-07T05:19:31.362Z,88.70
2018-02-07T05:20:32.083Z,87.94
2018-02-07T05:21:31.391Z,88.04
2018-02-07T05:22:31.485Z,88.42
2018-02-07T05:23:31.528Z,88.42
2018-02-07T05:24:31.401Z,89.36
2018-02-07T05:27:31.518Z,88.98
2018-02-07T05:28:31.502Z,89.07
2018-02-07T05:29:31.443Z,88.23
2018-02-07T05:31:31.512Z,88.60
2018-02-07T05:32:31.467Z,88.89
2018-02-07T05:33:31.577Z,88.51
2018-02-07T05:34:31.702Z,89.17
2018-02-07T05:35:31.508Z,89.22
2018-02-07T05:36:31.805Z,88.98
2018-02-07T05:37:32.124Z,89.07
2018-02-07T05:38:31.552Z,89.03
2018-02-07T05:39:31.533Z,89.50
2018-02-07T05:40:31.536Z,89.31
2018-02-07T05:41:32.479Z,88.93
2018-02-07T05:42:32.576Z,89.22
2018-02-07T05:43:32.478Z,89.40
2018-02-07T05:44:31.571Z,89.54
2018-02-07T05:45:31.762Z,89.17
2018-02-07T05:46:31.786Z,88.84
2018-02-07T05:47:31.593Z,88.37
2018-02-07T05:48:31.601Z,89.22
2018-02-07T05:49:32.435Z,89.69
2018-02-07T05:50:32.457Z,89.40
2018-02-07T05:51:31.777Z,88.75
2018-02-07T05:52:32.159Z,88.93
2018-02-07T05:53:32.167Z,89.40
2018-02-07T05:54:32.936Z,89.69
2018-02-07T05:56:33.154Z,88.84
2018-02-07T05:59:31.904Z,89.50
2018-02-07T06:00:31.699Z,89.97
2018-02-07T06:01:33.138Z,89.88
2018-02-07T06:02:32.566Z,89.78
2018-02-07T06:04:32.300Z,90.16
2018-02-07T06:06:32.809Z,89.50
2018-02-07T06:08:31.831Z,89.40
2018-02-07T06:09:32.746Z,89.03
2018-02-07T06:10:31.907Z,89.50
2018-02-07T06:11:32.238Z,89.31
2018-02-07T06:12:31.812Z,89.59
2018-02-07T06:14:31.813Z,90.16
2018-02-07T06:15:33.432Z,89.50
2018-02-07T06:18:31.883Z,89.69
2018-02-07T06:19:33.042Z,90.45
2018-02-07T06:20:31.890Z,89.97
2018-02-07T06:21:31.906Z,89.78
2018-02-07T06:22:31.898Z,89.88
2018-02-07T06:23:31.889Z,89.59
2018-02-07T06:24:31.998Z,89.40
2018-02-07T06:25:31.905Z,89.78
2018-02-07T06:29:32.680Z,89.59
2018-02-07T06:30:32.854Z,90.26
2018-02-07T06:31:31.953Z,89.97
2018-02-07T06:32:32.005Z,90.16
2018-02-07T06:33:32.304Z,91.20
2018-02-07T06:34:31.983Z,90.92
2018-02-07T06:35:33.100Z,90.54
2018-02-07T06:36:32.843Z,90.54
2018-02-07T06:37:31.999Z,90.45
2018-02-07T06:38:32.862Z,89.88
2018-02-07T06:40:33.151Z,90.45
2018-02-07T06:41:33.164Z,90.35
2018-02-07T06:44:32.110Z,89.78
2018-02-07T06:45:34.004Z,89.97
2018-02-07T06:48:32.625Z,90.54
2018-02-07T06:49:32.621Z,90.54
2018-02-07T06:51:32.116Z,89.88
2018-02-07T06:52:32.268Z,89.97
2018-02-07T06:53:32.143Z,90.07
2018-02-07T06:54:32.155Z,89.88
2018-02-07T06:55:32.152Z,90.35
2018-02-07T06:56:32.173Z,90.26
2018-02-07T06:57:32.162Z,91.11
2018-02-07T06:58:32.190Z,90.73
2018-02-07T06:59:32.225Z,90.64
2018-02-07T07:00:32.775Z,90.54
2018-02-07T07:01:32.278Z,90.45
2018-02-07T07:02:32.231Z,90.16
2018-02-07T07:05:32.253Z,89.97
2018-02-07T07:06:32.410Z,90.45
2018-02-07T07:07:32.252Z,91.11
2018-02-07T07:14:32.372Z,91.39
2018-02-07T07:16:33.428Z,90.16
2018-02-07T07:17:33.005Z,90.35
2018-02-07T07:18:33.339Z,90.45
2018-02-07T07:19:32.353Z,90.82
2018-02-07T07:20:33.250Z,90.92
2018-02-07T07:21:32.373Z,90.54
2018-02-07T07:23:32.389Z,89.88
2018-02-07T07:24:32.552Z,90.07
2018-02-07T07:25:33.231Z,90.07
2018-02-07T07:26:33.769Z,90.35
2018-02-07T07:29:32.927Z,90.45
2018-02-07T07:30:32.821Z,90.54
2018-02-07T07:31:32.482Z,90.26
2018-02-07T07:32:32.879Z,90.35
2018-02-07T07:33:32.535Z,90.82
2018-02-07T07:34:32.850Z,90.92
2018-02-07T07:35:32.510Z,90.54
2018-02-07T07:36:33.133Z,90.64
2018-02-07T07:37:32.586Z,91.01
2018-02-07T07:38:32.711Z,90.64
2018-02-07T07:40:32.517Z,90.35
2018-02-07T07:42:34.172Z,91.01
2018-02-07T07:43:32.955Z,90.73
2018-02-07T07:44:34.229Z,91.01
2018-02-07T07:46:33.226Z,90.92
2018-02-07T07:47:32.579Z,90.92
2018-02-07T07:48:32.805Z,90.92
2018-02-07T07:49:32.633Z,91.30
2018-02-07T07:50:32.715Z,91.20
2018-02-07T07:52:33.203Z,91.39
2018-02-07T07:53:33.483Z,91.20
2018-02-07T07:55:33.675Z,91.58
2018-02-07T07:56:33.421Z,91.77
2018-02-07T07:57:33.364Z,91.49
2018-02-07T07:58:32.710Z,91.67
2018-02-07T08:00:33.503Z,91.49
2018-02-07T08:01:33.485Z,91.20
2018-02-07T08:04:33.653Z,91.20
2018-02-07T08:05:33.101Z,90.92
2018-02-07T08:06:33.197Z,91.01
2018-02-07T08:07:32.719Z,91.39
2018-02-07T08:08:33.236Z,90.92
2018-02-07T08:09:32.737Z,90.92
2018-02-07T08:10:32.852Z,91.20
2018-02-07T08:11:32.971Z,91.01
2018-02-07T08:12:32.857Z,91.11
2018-02-07T08:13:34.500Z,90.54
2018-02-07T08:15:33.517Z,90.64
2018-02-07T08:16:33.801Z,90.54
2018-02-07T08:20:34.231Z,90.73
2018-02-07T08:21:34.692Z,90.73
2018-02-07T08:22:33.816Z,90.54
2018-02-07T08:23:32.884Z,90.54
2018-02-07T08:24:32.926Z,90.45
2018-02-07T08:26:33.589Z,91.01
2018-02-07T08:27:33.510Z,91.01
2018-02-07T08:28:33.514Z,90.64
2018-02-07T08:30:34.214Z,90.92
2018-02-07T08:31:35.803Z,90.35
2018-02-07T08:32:33.768Z,91.11
2018-02-07T08:33:33.564Z,91.01
2018-02-07T08:34:32.945Z,90.54
2018-02-07T08:35:32.979Z,90.54
2018-02-07T08:37:33.363Z,90.26
2018-02-07T08:38:33.160Z,90.54
2018-02-07T08:39:32.976Z,90.07
2018-02-07T08:40:33.127Z,90.35
2018-02-07T08:42:33.593Z,91.11
2018-02-07T08:46:34.346Z,90.35
2018-02-07T08:47:33.158Z,90.73
2018-02-07T08:48:33.298Z,90.45
2018-02-07T08:49:33.518Z,90.35
2018-02-07T08:50:34.993Z,89.97
2018-02-07T08:52:33.319Z,89.97
2018-02-07T08:53:35.342Z,89.78
2018-02-07T08:54:33.377Z,89.31
2018-02-07T08:57:33.782Z,89.50
2018-02-07T08:59:36.438Z,88.84
2018-02-07T09:02:33.522Z,88.18
2018-02-07T09:03:33.920Z,88.65
2018-02-07T09:04:33.629Z,87.71
2018-02-07T09:05:33.866Z,87.99
2018-02-07T09:06:34.207Z,87.80
2018-02-07T09:07:33.914Z,87.71
2018-02-07T09:08:34.178Z,87.94
2018-02-07T09:10:33.920Z,88.13
2018-02-07T09:12:33.397Z,87.85
2018-02-07T09:13:33.915Z,87.09
2018-02-07T09:14:34.037Z,87.37
2018-02-07T09:15:34.788Z,87.28
2018-02-07T09:16:33.474Z,86.99
2018-02-07T09:18:34.252Z,87.09
2018-02-07T09:20:34.432Z,87.18
2018-02-07T09:22:34.468Z,87.18
2018-02-07T09:24:34.516Z,87.09
2018-02-07T09:25:33.345Z,86.43
2018-02-07T09:27:33.391Z,85.58
2018-02-07T09:28:33.392Z,85.49
2018-02-07T09:29:33.795Z,85.68
2018-02-07T09:30:33.394Z,85.68
2018-02-07T09:31:33.760Z,85.49
2018-02-07T09:32:33.496Z,85.39
2018-02-07T09:33:37.721Z,86.24
2018-02-07T09:34:34.230Z,85.58
2018-02-07T09:35:33.671Z,85.01
2018-02-07T09:36:35.029Z,85.01
2018-02-07T09:37:34.074Z,84.45
2018-02-07T09:38:35.183Z,84.07
2018-02-07T09:39:34.163Z,83.69
2018-02-07T09:40:33.623Z,83.59
2018-02-07T09:41:33.630Z,83.97
2018-02-07T09:43:33.599Z,83.73
2018-02-07T09:44:33.540Z,83.73
2018-02-07T09:45:34.812Z,82.75
2018-02-07T09:46:33.939Z,82.75
2018-02-07T09:47:34.578Z,83.22
2018-02-07T09:48:33.922Z,83.03
2018-02-07T09:49:33.844Z,82.79
2018-02-07T09:50:34.309Z,82.22
2018-02-07T09:52:34.733Z,82.22
2018-02-07T09:55:34.882Z,81.93
2018-02-07T09:56:34.595Z,81.18
2018-02-07T09:57:35.686Z,81.56
2018-02-07T09:58:33.795Z,80.90
2018-02-07T09:59:34.850Z,81.27
2018-02-07T10:00:33.983Z,81.37
2018-02-07T10:01:33.848Z,80.80
2018-02-07T10:03:34.517Z,81.37
2018-02-07T10:04:33.679Z,81.09
2018-02-07T10:05:33.702Z,80.99
2018-02-07T10:06:36.221Z,80.71
2018-02-07T10:07:34.684Z,80.71
2018-02-07T10:09:36.047Z,80.24
2018-02-07T10:10:33.767Z,79.95
2018-02-07T10:11:34.580Z,79.76
2018-02-07T10:12:34.088Z,79.76
2018-02-07T10:13:35.777Z,80.05
2018-02-07T10:14:34.995Z,79.38
2018-02-07T10:16:35.029Z,79.48
2018-02-07T10:17:35.192Z,79.19
2018-02-07T10:18:35.875Z,79.10
2018-02-07T10:21:36.581Z,78.44
2018-02-07T10:22:35.174Z,78.95
2018-02-07T10:23:35.695Z,78.39
2018-02-07T10:24:35.679Z,78.63
2018-02-07T10:26:35.370Z,79.10
2018-02-07T10:27:36.374Z,79.14
2018-02-07T10:28:36.017Z,79.33
2018-02-07T10:29:35.486Z,78.48
2018-02-07T10:30:34.274Z,78.58
2018-02-07T10:31:35.974Z,78.48
2018-02-07T10:32:34.289Z,77.53
2018-02-07T10:33:35.463Z,77.44
2018-02-07T10:34:33.972Z,77.53
2018-02-07T10:35:35.500Z,78.10
2018-02-07T10:36:34.141Z,78.10
2018-02-07T10:37:35.101Z,77.15
2018-02-07T10:38:34.446Z,77.06
2018-02-07T10:39:35.130Z,76.97
2018-02-07T10:40:34.953Z,76.97
2018-02-07T10:42:34.706Z,77.25
2018-02-07T10:43:34.842Z,77.15
2018-02-07T10:44:35.301Z,76.59
2018-02-07T10:45:35.532Z,76.87
2018-02-07T10:47:35.437Z,76.02
2018-02-07T10:48:35.837Z,76.50
2018-02-07T10:49:37.030Z,76.21
2018-02-07T10:50:35.437Z,75.74
2018-02-07T10:52:34.847Z,75.93
2018-02-07T10:53:35.215Z,75.93
2018-02-07T10:54:34.972Z,75.83
2018-02-07T10:55:35.640Z,75.36
2018-02-07T10:56:36.975Z,75.83
2018-02-07T10:57:36.034Z,75.49
2018-02-07T10:58:35.514Z,75.68
2018-02-07T10:59:35.966Z,75.96
2018-02-07T11:01:36.357Z,75.40
2018-02-07T11:03:36.335Z,75.87
2018-02-07T11:04:35.746Z,75.96
2018-02-07T11:05:34.929Z,75.12
2018-02-07T11:06:35.108Z,74.64
2018-02-07T11:07:35.522Z,75.12
2018-02-07T11:08:35.466Z,74.83
2018-02-07T11:10:35.277Z,74.74
2018-02-07T11:11:34.483Z,74.64
2018-02-07T11:12:35.028Z,74.64
2018-02-07T11:13:37.111Z,74.64
2018-02-07T11:14:34.703Z,75.21
2018-02-07T11:15:34.604Z,74.55
2018-02-07T11:16:35.619Z,74.64
2018-02-07T11:17:34.748Z,74.83
2018-02-07T11:18:34.562Z,74.45
2018-02-07T11:19:34.366Z,74.36
2018-02-07T11:21:34.386Z,74.17
2018-02-07T11:22:34.444Z,74.26
2018-02-07T11:23:34.575Z,73.98
2018-02-07T11:24:34.910Z,73.41
2018-02-07T11:25:34.460Z,73.32
2018-02-07T11:26:34.890Z,73.13
2018-02-07T11:27:34.456Z,73.41
2018-02-07T11:28:35.513Z,73.03
2018-02-07T11:29:35.067Z,73.32
2018-02-07T11:31:34.481Z,72.47
2018-02-07T11:32:35.402Z,72.18
2018-02-07T11:33:35.872Z,72.18
2018-02-07T11:35:35.054Z,72.47
2018-02-07T11:36:36.140Z,72.18
2018-02-07T11:37:35.311Z,71.42
2018-02-07T11:39:35.846Z,71.04
2018-02-07T11:40:34.726Z,70.48
2018-02-07T11:41:35.067Z,71.04
2018-02-07T11:42:34.698Z,71.23
2018-02-07T11:43:34.607Z,71.55
2018-02-07T11:44:34.612Z,70.79
2018-02-07T11:45:34.771Z,70.86
2018-02-07T11:46:34.632Z,71.04
2018-02-07T11:47:35.077Z,71.52
2018-02-07T11:48:34.650Z,71.61
2018-02-07T11:49:35.698Z,71.33
2018-02-07T11:50:37.693Z,71.14
2018-02-07T11:51:35.055Z,70.67
2018-02-07T11:52:34.969Z,71.36
2018-02-07T11:53:34.725Z,71.65
2018-02-07T11:55:34.725Z,70.70
2018-02-07T11:56:34.725Z,70.79
2018-02-07T11:57:35.344Z,70.57
2018-02-07T11:58:34.755Z,70.95
2018-02-07T11:59:34.755Z,71.46
2018-02-07T12:00:34.765Z,71.84
2018-02-07T12:01:34.828Z,71.84
2018-02-07T12:02:35.560Z,72.22
2018-02-07T12:03:34.792Z,71.17
2018-02-07T12:04:35.099Z,71.36
2018-02-07T12:05:34.817Z,71.27
2018-02-07T12:06:34.827Z,71.36
2018-02-07T12:07:34.847Z,72.22
2018-02-07T12:08:35.296Z,71.65
2018-02-07T12:09:36.279Z,70.79
2018-02-07T12:11:35.152Z,70.51
2018-02-07T12:12:35.627Z,70.23
2018-02-07T12:13:34.905Z,71.08
2018-02-07T12:14:34.932Z,70.89
2018-02-07T12:15:35.098Z,71.36
2018-02-07T12:16:35.108Z,71.08
2018-02-07T12:17:35.025Z,70.79
2018-02-07T12:18:34.981Z,71.17
2018-02-07T12:19:35.356Z,70.42
2018-02-07T12:20:35.177Z,70.14
2018-02-07T12:21:34.982Z,70.42
2018-02-07T12:22:35.041Z,70.42
2018-02-07T12:24:35.889Z,69.85
2018-02-07T12:25:36.007Z,69.66
2018-02-07T12:26:35.263Z,70.04
2018-02-07T12:27:35.160Z,69.57
2018-02-07T12:28:35.973Z,69.95
2018-02-07T12:30:35.891Z,69.66
2018-02-07T12:31:35.312Z,69.38
2018-02-07T12:33:35.160Z,69.47
2018-02-07T12:34:35.239Z,69.85
2018-02-07T12:36:35.256Z,69.28
2018-02-07T12:37:35.137Z,69.38
2018-02-07T12:40:35.183Z,70.14
2018-02-07T12:41:36.893Z,69.76
2018-02-07T12:42:35.546Z,69.85
2018-02-07T12:43:35.199Z,69.85
2018-02-07T12:45:35.348Z,70.32
2018-02-07T12:46:35.483Z,70.14
2018-02-07T12:47:35.533Z,70.23
2018-02-07T12:48:35.313Z,70.14
2018-02-07T12:49:35.339Z,69.85
2018-02-07T12:50:35.337Z,70.42
2018-02-07T12:51:35.516Z,70.51
2018-02-07T12:52:37.265Z,70.42
2018-02-07T12:54:35.473Z,69.85
2018-02-07T12:59:35.802Z,69.95
2018-02-07T13:01:35.724Z,70.42
2018-02-07T13:03:35.908Z,70.42
2018-02-07T13:04:35.543Z,70.32
2018-02-07T13:05:35.630Z,69.95
2018-02-07T13:06:35.634Z,70.23
2018-02-07T13:07:35.609Z,70.51
2018-02-07T13:08:35.527Z,70.32
2018-02-07T13:09:37.795Z,69.95
2018-02-07T13:11:36.189Z,70.42
2018-02-07T13:12:35.658Z,70.32
2018-02-07T13:13:36.718Z,69.85
2018-02-07T13:14:36.377Z,70.04
2018-02-07T13:17:35.814Z,70.04
2018-02-07T13:18:36.888Z,69.95
2018-02-07T13:20:36.090Z,69.76
2018-02-07T13:21:36.632Z,70.42
2018-02-07T13:24:35.931Z,70.61
2018-02-07T13:26:35.766Z,70.42
2018-02-07T13:27:36.023Z,70.42
2018-02-07T13:29:35.753Z,70.32
2018-02-07T13:33:36.633Z,69.38
2018-02-07T13:34:36.896Z,69.28
2018-02-07T13:35:38.249Z,70.04
2018-02-07T13:36:37.199Z,69.76
2018-02-07T13:38:36.721Z,69.38
2018-02-07T13:41:37.377Z,69.66
2018-02-07T13:42:36.344Z,69.95
2018-02-07T13:43:35.822Z,69.38
2018-02-07T13:44:35.940Z,69.57
2018-02-07T13:45:35.832Z,69.57
2018-02-07T13:48:37.015Z,69.28
2018-02-07T13:49:36.408Z,68.71
2018-02-07T13:50:37.908Z,68.81
2018-02-07T13:51:36.775Z,68.90
2018-02-07T13:52:36.905Z,69.09
2018-02-07T13:53:36.832Z,69.00
2018-02-07T13:54:37.270Z,68.81
2018-02-07T13:55:35.951Z,68.24
2018-02-07T13:56:37.071Z,68.24
2018-02-07T13:57:37.798Z,69.00
2018-02-07T13:59:38.048Z,69.00
2018-02-07T14:01:37.343Z,68.62
2018-02-07T14:03:36.027Z,68.71
2018-02-07T14:04:37.314Z,69.00
2018-02-07T14:06:36.363Z,68.24
2018-02-07T14:07:37.531Z,68.05
2018-02-07T14:09:38.209Z,68.15
2018-02-07T14:12:37.021Z,69.00
2018-02-07T14:13:38.103Z,69.00
2018-02-07T14:14:38.717Z,68.15
2018-02-07T14:15:36.784Z,68.43
2018-02-07T14:16:36.425Z,68.24
2018-02-07T14:17:37.361Z,68.52
2018-02-07T14:18:36.173Z,68.24
2018-02-07T14:19:36.200Z,68.05
2018-02-07T14:20:36.563Z,68.15
2018-02-07T14:21:36.636Z,68.15
2018-02-07T14:23:38.275Z,68.52
2018-02-07T14:24:37.410Z,68.05
2018-02-07T14:25:37.339Z,67.86
2018-02-07T14:26:37.532Z,68.24
2018-02-07T14:27:36.397Z,68.33
2018-02-07T14:28:36.469Z,68.62
2018-02-07T14:29:37.276Z,69.00
2018-02-07T14:30:38.112Z,69.09
2018-02-07T14:31:36.589Z,69.00
2018-02-07T14:32:37.044Z,69.00
2018-02-07T14:33:36.853Z,69.38
2018-02-07T14:37:38.754Z,68.81
2018-02-07T14:40:36.459Z,68.43
2018-02-07T14:41:36.527Z,69.19
2018-02-07T14:42:36.532Z,69.09
2018-02-07T14:43:36.636Z,69.19
2018-02-07T14:45:37.338Z,68.81
2018-02-07T14:46:37.456Z,68.62
2018-02-07T14:47:37.424Z,68.71
2018-02-07T14:48:37.208Z,68.52
2018-02-07T14:49:36.764Z,68.52
2018-02-07T14:50:36.656Z,69.09
2018-02-07T14:51:36.846Z,69.00
2018-02-07T14:52:36.832Z,68.24
2018-02-07T14:53:36.562Z,68.24
2018-02-07T14:54:37.113Z,68.24
2018-02-07T14:55:37.079Z,68.43
2018-02-07T14:56:36.600Z,68.62
2018-02-07T14:57:36.610Z,68.71
2018-02-07T14:58:37.301Z,69.28
2018-02-07T14:59:37.836Z,69.38
2018-02-07T15:00:38.972Z,69.66
2018-02-07T15:04:38.508Z,68.81
2018-02-07T15:06:36.718Z,69.57
2018-02-07T15:07:36.972Z,69.15
2018-02-07T15:09:36.720Z,69.76
2018-02-07T15:10:36.709Z,69.28
2018-02-07T15:11:38.592Z,69.09
2018-02-07T15:13:36.779Z,69.44
2018-02-07T15:14:38.734Z,69.44
2018-02-07T15:15:36.810Z,69.53
2018-02-07T15:19:38.723Z,70.20
2018-02-07T15:20:39.388Z,69.34
2018-02-07T15:21:38.619Z,69.53
2018-02-07T15:22:39.374Z,69.82
2018-02-07T15:24:37.330Z,69.82
2018-02-07T15:25:37.334Z,69.25
2018-02-07T15:26:37.458Z,69.91
2018-02-07T15:27:37.256Z,69.91
2018-02-07T15:28:36.927Z,69.82
2018-02-07T15:29:36.913Z,70.01
2018-02-07T15:30:36.910Z,69.91
2018-02-07T15:32:38.516Z,70.39
2018-02-07T15:33:36.962Z,70.20
2018-02-07T15:36:37.926Z,70.48
2018-02-07T15:37:36.976Z,71.04
2018-02-07T15:38:38.028Z,71.04
2018-02-07T15:39:39.875Z,70.67
2018-02-07T15:40:37.199Z,70.86
2018-02-07T15:41:37.033Z,70.57
2018-02-07T15:44:37.557Z,70.01
2018-02-07T15:45:37.058Z,70.39
2018-02-07T15:46:37.065Z,70.39
2018-02-07T15:47:38.034Z,70.95
2018-02-07T15:48:37.096Z,71.23
2018-02-07T15:50:37.110Z,70.67
2018-02-07T15:51:37.655Z,70.57
2018-02-07T15:52:37.417Z,70.67
2018-02-07T15:53:37.234Z,70.39
2018-02-07T15:54:37.144Z,71.04
2018-02-07T15:55:37.850Z,70.86
2018-02-07T15:56:37.717Z,70.86
2018-02-07T15:57:37.917Z,71.04
2018-02-07T15:58:37.272Z,70.95
2018-02-07T15:59:37.505Z,70.86
2018-02-07T16:01:37.481Z,71.52
2018-02-07T16:02:37.434Z,71.99
2018-02-07T16:03:37.232Z,72.37
2018-02-07T16:04:38.458Z,71.99
2018-02-07T16:05:37.383Z,71.42
2018-02-07T16:06:37.304Z,71.33
2018-02-07T16:07:37.665Z,72.18
2018-02-07T16:08:37.285Z,71.71
2018-02-07T16:09:38.065Z,71.42
2018-02-07T16:10:37.347Z,71.71
2018-02-07T16:11:37.327Z,71.61
2018-02-07T16:12:37.317Z,72.09
2018-02-07T16:13:38.480Z,72.18
2018-02-07T16:14:37.355Z,72.56
2018-02-07T16:15:37.417Z,72.47
2018-02-07T16:16:37.366Z,72.85
2018-02-07T16:17:38.874Z,72.47
2018-02-07T16:18:37.851Z,71.99
2018-02-07T16:19:39.059Z,72.47
2018-02-07T16:21:37.836Z,72.52
2018-02-07T16:22:38.624Z,72.85
2018-02-07T16:23:37.616Z,72.99
2018-02-07T16:24:38.087Z,72.80
2018-02-07T16:25:39.619Z,73.28
2018-02-07T16:26:38.017Z,73.47
2018-02-07T16:27:37.465Z,74.13
2018-02-07T16:29:38.030Z,73.56
2018-02-07T16:30:37.535Z,74.04
2018-02-07T16:31:38.042Z,73.28